Terminal Aerodrome Forecast
Issued by NWS Boston, MA

Home | Current Version | Previous Version | Text Only | Print | Product List | Glossary On
Versions: 1 2 3 4 5 6 7 8 9 10 11 12 13 14 15 16 17 18 19 20 21 22 23 24 25 26 27 28 29 30 31 32
000
FTUS41 KBOX 250548 AAB
TAFORH
TAF AMD
KORH 250548Z 2506/2606 17006KT P6SM SCT025 OVC045
     FM250900 14007KT P6SM VCSH OVC025
     FM251100 13008KT 5SM -RA BR OVC015
     FM251500 11009KT 3SM RA BR OVC008
     FM251800 12009KT 1 1/2SM -RA BR OVC008
     FM252300 15006KT 1SM -RA BR OVC003
     FM260300 13003KT 1SM BR VCSH OVC003
     FM260400 16003KT 2SM BR VCSH OVC003=

USA.gov is the U.S. government's official web portal to all federal, state and local government web resources and services.